Time;durP1;ratioP1;P1;durP2;ratioP2;P2;SDS_P1;SDS_P2;PMS_P1;PMS_P2;Temp;Humidity;BMP_temperature;BMP_pressure;BME280_temperature;BME280_humidity;BME280_pressure;Samples;Min_cycle;Max_cycle;Signal;HPM_P1;HPM_P2
2022/08/13 00:02:10;;;;;;;7.35;5.22;;;21.90;77.30;;;;;;5066770;28;20029;-85
2022/08/13 00:04:38;;;;;;;8.18;5.55;;;21.90;77.30;;;;;;5068859;28;20028;-85
2022/08/13 00:07:13;;;;;;;7.38;5.30;;;21.80;77.20;;;;;;5067201;28;20066;-85
2022/08/13 00:09:42;;;;;;;7.13;5.15;;;21.80;77.20;;;;;;5082043;28;20032;-85
2022/08/13 00:15:30;;;;;;;5.78;4.93;;;21.70;77.70;;;;;;5089459;28;20031;-84
2022/08/13 00:17:59;;;;;;;7.05;4.93;;;21.60;77.80;;;;;;5069965;28;20140;-84
2022/08/13 00:20:28;;;;;;;6.00;4.55;;;21.60;77.90;;;;;;5066610;28;20032;-84
2022/08/13 00:22:56;;;;;;;6.03;4.90;;;21.60;78.00;;;;;;5066144;28;20058;-85
2022/08/13 00:25:23;;;;;;;5.90;5.07;;;21.60;78.60;;;;;;5071096;28;20028;-84
2022/08/13 00:27:51;;;;;;;9.68;5.35;;;21.50;80.20;;;;;;5087982;28;20275;-84
2022/08/13 00:30:18;;;;;;;10.52;4.88;;;21.40;81.90;;;;;;5086699;28;20031;-83
2022/08/13 00:32:45;;;;;;;6.22;5.00;;;21.40;82.80;;;;;;5086024;28;20488;-82
2022/08/13 00:35:12;;;;;;;6.93;5.00;;;21.20;83.70;;;;;;5082845;28;20834;-83
2022/08/13 00:37:41;;;;;;;6.28;4.93;;;21.20;84.70;;;;;;5066013;28;20040;-83
2022/08/13 00:40:10;;;;;;;16.45;5.47;;;21.10;86.00;;;;;;5065446;28;20040;-84
2022/08/13 00:42:40;;;;;;;6.88;4.85;;;21.00;87.50;;;;;;5066488;28;20025;-83
2022/08/13 00:45:07;;;;;;;14.23;6.28;;;20.90;88.90;;;;;;5066042;28;20127;-84
2022/08/13 00:50:18;;;;;;;7.97;5.45;;;20.70;90.60;;;;;;5069630;28;20150;-83
2022/08/13 00:52:44;;;;;;;6.80;5.40;;;20.60;91.00;;;;;;5069221;28;20037;-83
2022/08/13 00:55:15;;;;;;;7.05;5.60;;;20.60;91.30;;;;;;5068552;28;20036;-83
2022/08/13 00:57:44;;;;;;;6.38;5.20;;;20.60;91.70;;;;;;5069137;28;20090;-84
2022/08/13 01:00:13;;;;;;;10.85;5.85;;;20.50;92.10;;;;;;5069075;28;20603;-83
2022/08/13 01:02:44;;;;;;;9.40;6.35;;;20.50;92.80;;;;;;5067802;28;20032;-83
2022/08/13 01:05:10;;;;;;;7.55;6.07;;;20.50;93.40;;;;;;5067906;28;20166;-82
2022/08/13 01:07:41;;;;;;;7.57;6.03;;;20.50;93.80;;;;;;5067706;28;20453;-82
2022/08/13 01:10:11;;;;;;;7.78;6.10;;;20.50;94.10;;;;;;5068779;28;20050;-82
2022/08/13 01:12:38;;;;;;;8.63;6.30;;;20.50;94.30;;;;;;5067926;28;20020;-83
2022/08/13 01:15:05;;;;;;;11.00;6.22;;;20.50;94.50;;;;;;5067834;28;20063;-83
2022/08/13 01:17:32;;;;;;;8.23;5.88;;;20.50;94.90;;;;;;5068896;28;20040;-82
2022/08/13 01:19:58;;;;;;;6.70;5.50;;;20.40;94.90;;;;;;5067572;28;20028;-83
2022/08/13 01:22:25;;;;;;;13.20;6.22;;;20.40;94.40;;;;;;5068859;28;20036;-84
2022/08/13 01:24:52;;;;;;;6.45;5.60;;;20.40;94.70;;;;;;5068384;28;20059;-84
2022/08/13 01:27:22;;;;;;;6.65;5.38;;;20.40;94.70;;;;;;5067870;28;20029;-82
2022/08/13 01:29:49;;;;;;;12.77;5.35;;;20.50;94.50;;;;;;5076606;28;20055;-81
2022/08/13 01:32:16;;;;;;;8.40;5.78;;;20.50;94.30;;;;;;5087205;28;20024;-82
2022/08/13 01:34:48;;;;;;;8.52;5.93;;;20.50;94.20;;;;;;5067692;28;20051;-83
2022/08/13 01:37:14;;;;;;;5.57;4.88;;;20.50;94.10;;;;;;5069148;28;20027;-83
2022/08/13 01:39:40;;;;;;;7.70;5.45;;;20.50;94.10;;;;;;5070044;28;20249;-84
2022/08/13 01:42:17;;;;;;;8.05;5.45;;;20.40;94.20;;;;;;5068477;28;20551;-83
2022/08/13 01:44:45;;;;;;;8.73;5.75;;;20.40;94.40;;;;;;5069279;28;20036;-85
2022/08/13 01:52:42;;;;;;;6.93;5.10;;;20.10;94.90;;;;;;5070059;28;20047;-84
2022/08/13 01:55:09;;;;;;;6.25;4.88;;;20.10;95.00;;;;;;5067719;28;20028;-84
2022/08/13 01:57:37;;;;;;;6.93;4.82;;;20.20;94.80;;;;;;5064640;28;20032;-85
2022/08/13 02:00:07;;;;;;;7.75;5.28;;;20.30;94.60;;;;;;5067178;28;20033;-83
2022/08/13 02:02:33;;;;;;;5.88;4.65;;;20.30;94.20;;;;;;5067785;28;20170;-83
2022/08/13 02:04:59;;;;;;;6.25;4.80;;;20.30;94.10;;;;;;5067281;28;20123;-81
2022/08/13 02:07:25;;;;;;;8.63;5.00;;;20.40;94.00;;;;;;5066636;28;20545;-82
2022/08/13 02:09:52;;;;;;;6.18;4.60;;;20.40;94.10;;;;;;5067059;28;20135;-79
2022/08/13 02:12:17;;;;;;;6.13;4.07;;;20.40;94.00;;;;;;5067926;28;20032;-82
2022/08/13 02:14:43;;;;;;;7.72;4.68;;;20.30;94.10;;;;;;5067599;28;20119;-82
2022/08/13 02:17:25;;;;;;;6.95;4.65;;;20.20;94.50;;;;;;5067717;28;20125;-81
2022/08/13 02:19:55;;;;;;;6.95;5.03;;;20.10;95.60;;;;;;5068073;28;20028;-82
2022/08/13 02:22:23;;;;;;;9.10;5.55;;;20.10;96.80;;;;;;5069201;28;20089;-82
2022/08/13 02:24:53;;;;;;;6.88;5.25;;;20.00;97.30;;;;;;5069432;28;20562;-83
2022/08/13 02:27:24;;;;;;;7.28;5.47;;;19.90;97.70;;;;;;5068095;28;20028;-83
2022/08/13 02:29:52;;;;;;;7.85;5.68;;;19.90;98.40;;;;;;5067652;28;20035;-82
2022/08/13 02:32:19;;;;;;;7.57;5.82;;;19.80;99.00;;;;;;5067844;28;20024;-82
2022/08/13 02:34:49;;;;;;;8.65;5.97;;;19.80;99.60;;;;;;5067494;28;20028;-82
2022/08/13 02:37:15;;;;;;;7.82;5.82;;;19.80;99.70;;;;;;5068339;28;20037;-83
2022/08/13 02:39:42;;;;;;;8.02;5.38;;;19.80;99.90;;;;;;5067391;28;20031;-83
2022/08/13 02:42:09;;;;;;;10.20;5.63;;;19.80;99.90;;;;;;5065948;28;20044;-83
2022/08/13 02:44:35;;;;;;;6.10;5.32;;;19.90;99.90;;;;;;5065372;28;20082;-83
2022/08/13 02:47:04;;;;;;;7.03;4.95;;;19.90;99.90;;;;;;5068082;28;20072;-82
2022/08/13 02:49:31;;;;;;;8.73;5.20;;;19.90;99.90;;;;;;5066216;28;20035;-82
2022/08/13 02:51:59;;;;;;;8.32;5.85;;;19.90;99.90;;;;;;5066579;28;20025;-81
2022/08/13 02:54:27;;;;;;;7.32;5.43;;;19.90;99.90;;;;;;5066491;28;20533;-81
2022/08/13 02:56:52;;;;;;;7.30;5.28;;;19.90;99.90;;;;;;5065898;28;20503;-83
2022/08/13 02:59:18;;;;;;;10.27;5.20;;;19.90;99.90;;;;;;5067823;28;20024;-84
2022/08/13 03:01:46;;;;;;;7.63;5.43;;;19.80;99.90;;;;;;5068285;28;20451;-82
2022/08/13 03:04:14;;;;;;;9.02;5.47;;;19.80;99.90;;;;;;5067040;28;20028;-84
2022/08/13 03:06:42;;;;;;;6.30;4.95;;;19.80;99.90;;;;;;5068388;28;20122;-84
2022/08/13 03:09:07;;;;;;;8.40;5.45;;;19.70;99.90;;;;;;5066805;28;20512;-83
2022/08/13 03:11:33;;;;;;;9.05;5.47;;;19.60;99.90;;;;;;5066212;28;20021;-82
2022/08/13 03:14:03;;;;;;;7.20;5.25;;;19.50;99.90;;;;;;5066944;28;20021;-83
2022/08/13 03:16:29;;;;;;;6.57;5.30;;;19.60;99.90;;;;;;5069026;28;20036;-84
2022/08/13 03:18:57;;;;;;;12.68;5.95;;;19.40;99.90;;;;;;5066918;28;20070;-83
2022/08/13 03:21:26;;;;;;;7.50;5.38;;;19.40;99.90;;;;;;5066078;28;20028;-82
2022/08/13 03:23:52;;;;;;;8.10;5.80;;;19.40;99.90;;;;;;5066406;28;20138;-82
2022/08/13 03:26:22;;;;;;;8.32;5.78;;;19.20;99.90;;;;;;5066269;28;20508;-82
2022/08/13 03:28:51;;;;;;;7.20;5.60;;;19.10;99.90;;;;;;5066015;28;20656;-84
2022/08/13 03:31:21;;;;;;;6.55;5.05;;;19.00;99.90;;;;;;5066455;28;20108;-83
2022/08/13 03:33:47;;;;;;;6.72;5.53;;;18.80;99.90;;;;;;5065973;28;20040;-82
2022/08/13 03:36:14;;;;;;;10.40;5.85;;;18.80;99.90;;;;;;5066228;28;20094;-82
2022/08/13 03:38:40;;;;;;;6.95;5.45;;;18.70;99.90;;;;;;5068168;28;20035;-82
2022/08/13 03:41:12;;;;;;;6.82;5.75;;;18.60;99.90;;;;;;5066191;28;20028;-84
2022/08/13 03:43:42;;;;;;;6.97;5.10;;;18.50;99.90;;;;;;5066800;28;20124;-83
2022/08/13 03:46:09;;;;;;;7.15;4.88;;;18.50;99.90;;;;;;5065986;28;20485;-82
2022/08/13 03:48:34;;;;;;;7.82;5.15;;;18.40;99.90;;;;;;5066888;28;20024;-83
2022/08/13 03:51:01;;;;;;;7.10;4.85;;;18.40;99.90;;;;;;5067511;28;20085;-84
2022/08/13 03:53:28;;;;;;;7.78;4.97;;;18.40;99.90;;;;;;5066442;28;20025;-83
2022/08/13 03:55:55;;;;;;;8.05;5.25;;;18.30;99.90;;;;;;5067986;28;20025;-83
2022/08/13 03:58:21;;;;;;;9.48;5.97;;;18.30;99.90;;;;;;5066120;28;20603;-83
2022/08/13 04:00:48;;;;;;;8.43;6.25;;;18.30;99.90;;;;;;5065760;28;20044;-83
2022/08/13 04:03:24;;;;;;;8.38;5.32;;;18.20;99.90;;;;;;5066066;28;20063;-83
2022/08/13 04:05:53;;;;;;;6.88;5.10;;;18.20;99.90;;;;;;5067742;28;20115;-84
2022/08/13 04:08:20;;;;;;;6.10;5.03;;;18.20;99.90;;;;;;5068127;28;20082;-86
2022/08/13 04:10:46;;;;;;;11.70;5.40;;;18.30;99.90;;;;;;5068259;28;20024;-84
2022/08/13 04:13:18;;;;;;;7.28;4.80;;;18.30;99.90;;;;;;5067734;28;20044;-84
2022/08/13 04:15:44;;;;;;;6.75;4.47;;;18.40;99.90;;;;;;5068163;28;20035;-84
2022/08/13 04:18:11;;;;;;;11.32;5.18;;;18.40;99.90;;;;;;5065847;28;20435;-85
2022/08/13 04:20:39;;;;;;;7.18;5.22;;;18.50;99.90;;;;;;5066129;28;20421;-85
2022/08/13 04:23:07;;;;;;;9.63;4.55;;;18.60;99.90;;;;;;5071374;28;20048;-85
2022/08/13 04:25:35;;;;;;;6.88;4.93;;;18.80;99.90;;;;;;5070951;28;20044;-84
2022/08/13 04:28:01;;;;;;;6.57;4.75;;;18.90;99.90;;;;;;5071914;28;20046;-84
2022/08/13 04:30:27;;;;;;;9.05;5.75;;;19.10;99.90;;;;;;5070047;28;20242;-85
2022/08/13 04:32:53;;;;;;;8.93;6.63;;;19.30;99.90;;;;;;5072194;28;20043;-85
2022/08/13 04:35:19;;;;;;;8.48;5.25;;;19.40;99.90;;;;;;5072035;28;20020;-84
2022/08/13 04:37:45;;;;;;;6.40;5.20;;;19.50;99.90;;;;;;5070534;28;20032;-85
2022/08/13 04:40:12;;;;;;;7.68;5.35;;;19.70;99.90;;;;;;5071583;28;20065;-84
2022/08/13 04:42:53;;;;;;;9.70;4.32;;;19.80;99.90;;;;;;5069879;28;20028;-85
2022/08/13 04:45:22;;;;;;;7.20;4.78;;;20.00;99.90;;;;;;5078650;28;20020;-84
2022/08/13 04:47:48;;;;;;;8.18;4.70;;;20.20;99.90;;;;;;5089998;28;20063;-85
2022/08/13 04:50:15;;;;;;;5.88;4.63;;;20.30;99.90;;;;;;5091946;28;20742;-85
2022/08/13 04:52:40;;;;;;;6.60;5.00;;;20.40;99.90;;;;;;5087637;28;20050;-85
2022/08/13 04:55:11;;;;;;;9.88;5.30;;;20.60;99.90;;;;;;5068545;28;20028;-87
2022/08/13 04:57:38;;;;;;;7.10;5.28;;;20.80;99.90;;;;;;5067910;28;20412;-82
2022/08/13 05:00:06;;;;;;;13.52;6.55;;;20.90;99.90;;;;;;5067933;28;20033;-82
2022/08/13 05:02:35;;;;;;;14.50;7.55;;;21.10;99.90;;;;;;5067466;28;20737;-83
2022/08/13 05:05:01;;;;;;;7.43;5.57;;;21.30;99.90;;;;;;5068539;28;20093;-82
2022/08/13 05:07:27;;;;;;;10.90;6.57;;;21.60;99.90;;;;;;5067761;28;20118;-82
2022/08/13 05:09:53;;;;;;;13.65;6.10;;;21.80;99.50;;;;;;5068077;28;20033;-84
2022/08/13 05:12:18;;;;;;;8.60;5.60;;;22.00;99.00;;;;;;5067848;28;20452;-84
2022/08/13 05:14:44;;;;;;;7.72;5.78;;;22.20;98.50;;;;;;5069607;28;20032;-83
2022/08/13 05:17:10;;;;;;;5.93;4.93;;;22.30;98.10;;;;;;5068192;28;20021;-84
2022/08/13 05:19:35;;;;;;;8.45;5.03;;;22.50;97.90;;;;;;5068882;28;20454;-82
2022/08/13 05:22:01;;;;;;;7.25;5.55;;;22.70;97.50;;;;;;5064838;28;20024;-83
2022/08/13 05:24:27;;;;;;;8.63;5.95;;;22.80;97.10;;;;;;5067920;28;20101;-82
2022/08/13 05:26:52;;;;;;;6.45;4.80;;;23.20;96.50;;;;;;5067496;28;20032;-83
2022/08/13 05:29:18;;;;;;;7.20;5.25;;;23.50;95.40;;;;;;5061195;28;20048;-83
2022/08/13 05:31:45;;;;;;;7.55;5.57;;;23.80;95.10;;;;;;5067381;28;20547;-83
2022/08/13 05:34:11;;;;;;;8.85;5.40;;;24.00;94.60;;;;;;5068665;28;20067;-83
2022/08/13 05:36:39;;;;;;;8.20;5.55;;;24.30;93.70;;;;;;5061810;28;20028;-83
2022/08/13 05:39:05;;;;;;;6.95;5.25;;;24.30;93.80;;;;;;5067330;28;20123;-83
2022/08/13 05:41:30;;;;;;;7.85;5.65;;;24.30;93.70;;;;;;5063721;28;20054;-84
2022/08/13 05:43:56;;;;;;;8.15;5.47;;;24.40;93.70;;;;;;5067110;28;20040;-84
2022/08/13 05:46:25;;;;;;;9.52;5.63;;;24.50;93.30;;;;;;5080136;28;20405;-84
2022/08/13 05:48:56;;;;;;;8.65;6.00;;;24.70;93.00;;;;;;5059138;28;20028;-84
2022/08/13 05:51:31;;;;;;;8.45;5.88;;;25.00;92.60;;;;;;5068704;28;20119;-84
2022/08/13 05:53:59;;;;;;;8.13;5.82;;;25.30;91.60;;;;;;5065946;28;20028;-82
2022/08/13 05:56:26;;;;;;;6.10;4.97;;;25.80;90.90;;;;;;5065927;28;20098;-82
2022/08/13 05:58:52;;;;;;;7.25;5.68;;;26.40;89.80;;;;;;5065702;28;20032;-82
2022/08/13 06:04:08;;;;;;;10.23;5.70;;;27.30;84.70;;;;;;5066578;28;20102;-82
2022/08/13 06:06:34;;;;;;;7.78;5.40;;;28.00;81.40;;;;;;5055093;28;20028;-83
2022/08/13 06:09:00;;;;;;;6.25;5.13;;;28.70;78.20;;;;;;5067842;28;20043;-79
2022/08/13 06:11:30;;;;;;;7.85;5.47;;;29.30;74.10;;;;;;5065211;28;20047;-80
2022/08/13 06:13:56;;;;;;;12.90;4.90;;;29.60;70.80;;;;;;5065293;28;20405;-79
2022/08/13 06:16:28;;;;;;;7.47;4.55;;;30.60;67.40;;;;;;5067333;28;20039;-80
2022/08/13 06:18:57;;;;;;;4.75;4.28;;;31.10;64.70;;;;;;5065210;28;20032;-80
2022/08/13 06:21:25;;;;;;;8.90;4.70;;;31.30;62.70;;;;;;5065248;28;20043;-80
2022/08/13 06:23:52;;;;;;;7.95;4.95;;;31.60;61.40;;;;;;5065374;28;20424;-80
2022/08/13 06:26:19;;;;;;;14.93;5.18;;;32.00;59.70;;;;;;5065189;28;20524;-80
2022/08/13 06:28:46;;;;;;;6.05;4.68;;;32.40;57.20;;;;;;5066846;28;20389;-79
2022/08/13 06:31:16;;;;;;;5.93;4.57;;;32.80;55.40;;;;;;5066688;28;20032;-80
2022/08/13 06:33:43;;;;;;;9.07;4.53;;;33.20;54.00;;;;;;5065838;28;20516;-80
2022/08/13 06:36:12;;;;;;;7.10;4.20;;;33.20;53.10;;;;;;5067199;28;20032;-80
2022/08/13 06:38:48;;;;;;;5.18;4.18;;;33.20;52.50;;;;;;5065401;28;20036;-80
2022/08/13 06:41:15;;;;;;;6.13;4.88;;;33.30;51.40;;;;;;5064544;28;20035;-80
2022/08/13 06:43:47;;;;;;;6.18;4.45;;;33.10;51.00;;;;;;5065408;28;20044;-80
2022/08/13 06:46:15;;;;;;;5.15;3.92;;;32.80;51.40;;;;;;5083174;28;20026;-80
2022/08/13 06:48:41;;;;;;;5.55;4.30;;;32.10;51.80;;;;;;5086046;28;20035;-80
2022/08/13 06:51:09;;;;;;;9.25;4.88;;;31.80;52.50;;;;;;5087303;28;20024;-79
2022/08/13 06:53:36;;;;;;;6.45;4.25;;;31.50;53.80;;;;;;5074287;28;20029;-80
2022/08/13 06:56:05;;;;;;;5.90;3.95;;;31.70;54.10;;;;;;5065769;28;20045;-80
2022/08/13 06:58:32;;;;;;;11.65;4.00;;;32.40;52.60;;;;;;5065338;28;20652;-80
2022/08/13 07:00:59;;;;;;;4.63;4.20;;;32.60;51.70;;;;;;5065215;28;20024;-81
2022/08/13 07:03:31;;;;;;;9.38;4.60;;;33.00;50.60;;;;;;5066152;28;20442;-80
2022/08/13 07:05:57;;;;;;;4.68;3.72;;;33.00;49.60;;;;;;5065204;28;20103;-81
2022/08/13 07:08:29;;;;;;;7.10;4.03;;;32.50;50.30;;;;;;5066096;28;20036;-79
2022/08/13 07:13:44;;;;;;;7.25;3.75;;;32.70;50.70;;;;;;5066336;28;20515;-80
2022/08/13 07:16:12;;;;;;;4.30;3.80;;;33.00;49.80;;;;;;5066237;28;20056;-81
2022/08/13 07:18:39;;;;;;;5.82;3.88;;;33.20;49.40;;;;;;5066292;28;20158;-80
2022/08/13 07:21:10;;;;;;;6.93;3.58;;;33.40;48.80;;;;;;5064806;28;20115;-80
2022/08/13 07:23:40;;;;;;;4.97;4.13;;;33.50;48.20;;;;;;5066282;28;20052;-81
2022/08/13 07:26:06;;;;;;;7.40;3.83;;;33.70;47.60;;;;;;5064909;28;20043;-80
2022/08/13 07:28:33;;;;;;;5.03;3.70;;;33.50;47.50;;;;;;5064632;28;20037;-81
2022/08/13 07:31:00;;;;;;;12.32;4.72;;;33.70;47.30;;;;;;5064821;28;20028;-80
2022/08/13 07:33:27;;;;;;;6.10;3.80;;;33.90;46.70;;;;;;5064550;28;20028;-81
2022/08/13 07:35:53;;;;;;;6.18;3.90;;;34.20;46.90;;;;;;5065004;28;20025;-81
2022/08/13 07:38:19;;;;;;;6.25;4.13;;;34.50;46.10;;;;;;5065377;28;20108;-81
2022/08/13 07:40:52;;;;;;;7.13;3.58;;;34.70;45.30;;;;;;5064822;28;20120;-81
2022/08/13 07:43:22;;;;;;;5.15;3.90;;;34.60;44.90;;;;;;5064183;28;20487;-80
2022/08/13 07:46:10;;;;;;;3.50;2.90;;;33.90;45.30;;;;;;5064393;28;20090;-81
2022/08/13 07:48:37;;;;;;;5.57;3.60;;;33.80;45.90;;;;;;5065063;28;20042;-80
2022/08/13 07:51:05;;;;;;;5.85;3.78;;;33.90;45.90;;;;;;5065982;28;20135;-79
2022/08/13 07:53:34;;;;;;;5.10;3.97;;;33.90;45.80;;;;;;5065883;28;20036;-81
2022/08/13 07:56:01;;;;;;;5.43;3.40;;;34.10;45.50;;;;;;5066449;28;20393;-81
2022/08/13 07:58:30;;;;;;;11.23;3.85;;;34.20;45.10;;;;;;5068563;28;20419;-80
2022/08/13 08:00:59;;;;;;;5.13;3.58;;;34.00;45.10;;;;;;5068520;28;20782;-80
2022/08/13 08:03:30;;;;;;;8.20;4.30;;;33.90;45.20;;;;;;5070074;28;20036;-81
2022/08/13 08:05:58;;;;;;;5.00;3.60;;;34.00;45.20;;;;;;5068191;28;20396;-80
2022/08/13 08:08:25;;;;;;;6.88;3.90;;;34.00;45.20;;;;;;5068407;28;20126;-81
2022/08/13 08:10:52;;;;;;;3.92;3.30;;;34.10;44.70;;;;;;5068196;28;20614;-80
2022/08/13 08:13:18;;;;;;;3.83;3.28;;;34.10;44.30;;;;;;5068319;28;20108;-81
2022/08/13 08:15:44;;;;;;;4.85;4.03;;;34.20;44.60;;;;;;5069871;28;20078;-81
2022/08/13 08:18:10;;;;;;;6.40;3.92;;;34.30;43.80;;;;;;5068356;28;20028;-81
2022/08/13 08:20:36;;;;;;;4.30;3.90;;;34.30;44.10;;;;;;5069796;28;20116;-80
2022/08/13 08:23:02;;;;;;;8.27;3.38;;;34.50;43.80;;;;;;5068581;28;20147;-81
2022/08/13 08:25:28;;;;;;;6.80;4.05;;;34.70;43.50;;;;;;5069105;28;20492;-80
2022/08/13 08:27:54;;;;;;;6.50;4.03;;;34.70;42.70;;;;;;5068925;28;20032;-80
2022/08/13 08:30:20;;;;;;;6.72;3.70;;;34.80;42.90;;;;;;5069063;28;20094;-79
2022/08/13 08:32:52;;;;;;;3.88;3.33;;;34.80;43.10;;;;;;5069184;28;20469;-80
2022/08/13 08:35:22;;;;;;;4.63;4.05;;;34.90;42.80;;;;;;5067963;28;20063;-81
2022/08/13 08:43:34;;;;;;;8.35;4.20;;;34.50;42.40;;;;;;5069626;28;20083;-80
2022/08/13 08:46:03;;;;;;;4.85;3.97;;;34.50;42.30;;;;;;5068012;28;20025;-80
2022/08/13 08:48:30;;;;;;;8.20;4.05;;;34.80;41.40;;;;;;5068231;28;20039;-80
2022/08/13 08:50:57;;;;;;;5.82;4.07;;;34.60;42.30;;;;;;5067898;28;20021;-80
2022/08/13 08:53:24;;;;;;;4.93;3.80;;;34.50;42.40;;;;;;5068390;28;20094;-80
2022/08/13 08:55:52;;;;;;;4.82;3.38;;;34.60;42.30;;;;;;5068690;28;20489;-81
2022/08/13 08:58:21;;;;;;;8.10;3.45;;;34.70;42.40;;;;;;5067704;28;20032;-80
2022/08/13 09:00:48;;;;;;;4.30;3.22;;;34.70;41.70;;;;;;5067438;28;20090;-80
2022/08/13 09:03:19;;;;;;;5.65;3.55;;;34.80;41.60;;;;;;5066796;28;20463;-80
2022/08/13 09:05:48;;;;;;;4.95;4.40;;;35.10;41.40;;;;;;5066609;28;20032;-81
2022/08/13 09:08:18;;;;;;;4.57;3.45;;;35.30;40.10;;;;;;5066385;28;20039;-80
2022/08/13 09:10:48;;;;;;;4.63;3.03;;;35.40;39.90;;;;;;5066325;28;20032;-80
2022/08/13 09:13:19;;;;;;;4.72;3.67;;;35.50;39.20;;;;;;5066519;28;20412;-80
2022/08/13 09:15:48;;;;;;;6.50;3.78;;;35.70;38.90;;;;;;5068291;28;20039;-80
2022/08/13 09:18:17;;;;;;;3.75;2.88;;;35.70;38.80;;;;;;5067179;28;20124;-80
2022/08/13 09:20:43;;;;;;;3.30;2.92;;;36.00;38.70;;;;;;5066686;28;20027;-80
2022/08/13 09:23:14;;;;;;;4.72;2.78;;;36.20;37.70;;;;;;5068087;28;20076;-80
2022/08/13 09:25:45;;;;;;;5.22;3.17;;;36.30;36.50;;;;;;5067657;28;20032;-80
2022/08/13 09:28:11;;;;;;;4.03;2.90;;;36.50;36.70;;;;;;5067793;28;20020;-80
2022/08/13 09:30:38;;;;;;;3.97;2.95;;;36.70;36.20;;;;;;5067212;28;20554;-80
2022/08/13 09:33:04;;;;;;;7.32;3.08;;;37.00;35.70;;;;;;5067593;28;20016;-81
2022/08/13 09:35:31;;;;;;;4.60;3.35;;;37.30;35.10;;;;;;5067123;28;20028;-80
2022/08/13 09:37:58;;;;;;;3.55;3.25;;;37.70;34.90;;;;;;5067919;28;20021;-80
2022/08/13 09:40:29;;;;;;;5.22;3.55;;;37.80;34.40;;;;;;5067539;28;20036;-80
2022/08/13 09:43:01;;;;;;;3.90;3.03;;;37.60;35.20;;;;;;5059143;28;20031;-80
2022/08/13 09:45:28;;;;;;;3.60;3.10;;;37.40;35.60;;;;;;5065790;28;20404;-81
2022/08/13 09:47:54;;;;;;;3.83;3.10;;;37.10;34.80;;;;;;5067916;28;20028;-80
2022/08/13 09:50:21;;;;;;;4.32;3.30;;;36.30;35.40;;;;;;5067106;28;20101;-79
2022/08/13 09:52:48;;;;;;;4.03;3.20;;;35.60;36.10;;;;;;5065891;28;20025;-80
2022/08/13 09:55:14;;;;;;;4.88;3.13;;;35.30;36.80;;;;;;5067359;28;20044;-80
2022/08/13 09:57:52;;;;;;;4.03;2.80;;;34.80;37.00;;;;;;5066340;28;20501;-81
2022/08/13 10:00:21;;;;;;;3.70;3.03;;;34.40;37.80;;;;;;5067687;28;20444;-80
2022/08/13 10:02:56;;;;;;;3.85;3.28;;;34.40;37.70;;;;;;5061913;28;20116;-80
2022/08/13 10:05:25;;;;;;;5.53;3.40;;;34.80;36.90;;;;;;5066314;28;20195;-80
2022/08/13 10:07:51;;;;;;;5.05;3.58;;;35.40;36.60;;;;;;5066289;28;20024;-81
2022/08/13 10:10:17;;;;;;;6.00;3.10;;;35.90;35.70;;;;;;5065856;28;20095;-80
2022/08/13 10:12:43;;;;;;;8.80;3.55;;;35.90;36.00;;;;;;5067285;28;20077;-81
2022/08/13 10:15:10;;;;;;;6.40;2.97;;;36.40;35.50;;;;;;5066152;28;20039;-81
2022/08/13 10:17:52;;;;;;;5.55;3.22;;;36.60;35.00;;;;;;5066292;28;20047;-81
2022/08/13 10:20:30;;;;;;;7.30;3.25;;;36.20;35.00;;;;;;5065374;28;20167;-79
2022/08/13 10:22:58;;;;;;;4.13;3.13;;;35.50;35.60;;;;;;5065590;28;20077;-81
2022/08/13 10:25:25;;;;;;;4.18;3.50;;;35.10;35.20;;;;;;5065661;28;20032;-80
2022/08/13 10:27:52;;;;;;;4.03;2.95;;;34.50;36.00;;;;;;5067185;28;20104;-80
2022/08/13 10:30:22;;;;;;;4.45;2.90;;;34.10;36.70;;;;;;5065490;28;20028;-80
2022/08/13 10:32:47;;;;;;;3.95;3.08;;;33.70;37.70;;;;;;5066087;28;20020;-80
2022/08/13 10:35:17;;;;;;;7.10;3.45;;;33.70;37.40;;;;;;5066276;28;20032;-80
2022/08/13 10:37:49;;;;;;;4.78;3.35;;;33.70;36.70;;;;;;5065557;28;20385;-80
2022/08/13 10:40:15;;;;;;;4.65;3.42;;;33.60;37.30;;;;;;5065589;28;20036;-80
2022/08/13 10:42:44;;;;;;;5.43;3.33;;;33.30;37.60;;;;;;5066340;28;20039;-80
2022/08/13 10:45:13;;;;;;;5.20;3.40;;;32.80;37.60;;;;;;5065820;28;20045;-80
2022/08/13 10:47:50;;;;;;;6.55;3.75;;;32.60;38.80;;;;;;5065780;28;20020;-81
2022/08/13 10:50:18;;;;;;;5.18;3.30;;;32.30;39.40;;;;;;5066968;28;20032;-83
2022/08/13 10:52:45;;;;;;;5.10;3.40;;;31.80;39.10;;;;;;5065637;28;20048;-82
2022/08/13 10:55:12;;;;;;;9.30;3.95;;;31.20;39.30;;;;;;5066508;28;20056;-82
2022/08/13 10:57:40;;;;;;;6.45;3.75;;;30.90;39.80;;;;;;5065902;28;20101;-83
2022/08/13 11:00:08;;;;;;;4.55;3.33;;;30.80;40.50;;;;;;5064924;28;20524;-84
2022/08/13 11:02:34;;;;;;;8.35;3.25;;;30.70;40.70;;;;;;5065500;28;20432;-82
2022/08/13 11:05:03;;;;;;;4.13;3.58;;;30.70;40.80;;;;;;5065225;28;20036;-82
2022/08/13 11:07:31;;;;;;;7.47;3.45;;;30.70;41.10;;;;;;5065337;28;20112;-82
2022/08/13 11:09:56;;;;;;;3.90;2.83;;;30.90;41.40;;;;;;5064975;28;20493;-81
2022/08/13 11:12:24;;;;;;;3.85;2.85;;;31.00;41.30;;;;;;5065020;28;20028;-82
2022/08/13 11:14:50;;;;;;;4.28;3.00;;;31.20;42.90;;;;;;5064829;28;20028;-83
2022/08/13 11:17:17;;;;;;;3.55;2.65;;;31.20;43.50;;;;;;5065545;28;20035;-82
2022/08/13 11:19:46;;;;;;;7.60;3.53;;;31.10;43.80;;;;;;5065472;28;20028;-83
2022/08/13 11:22:12;;;;;;;5.25;3.03;;;31.10;44.00;;;;;;5064014;28;20036;-83
2022/08/13 11:24:37;;;;;;;4.32;3.17;;;31.00;43.70;;;;;;5064960;28;20508;-81
2022/08/13 11:27:04;;;;;;;4.25;2.85;;;30.90;43.10;;;;;;5066675;28;20031;-82
2022/08/13 11:29:30;;;;;;;11.38;2.78;;;30.80;42.80;;;;;;5064535;28;20032;-82
2022/08/13 11:31:56;;;;;;;8.30;3.67;;;30.70;43.00;;;;;;5066154;28;20028;-82
2022/08/13 11:34:22;;;;;;;5.47;3.55;;;30.60;43.60;;;;;;5065417;28;20086;-83
2022/08/13 11:36:47;;;;;;;5.68;3.00;;;30.60;43.70;;;;;;5064654;28;20024;-82
2022/08/13 11:39:13;;;;;;;4.47;3.17;;;30.60;43.40;;;;;;5064964;28;20094;-83
2022/08/13 11:41:39;;;;;;;4.40;2.25;;;30.70;43.40;;;;;;5066400;28;20025;-83
2022/08/13 11:44:04;;;;;;;3.28;2.58;;;30.90;42.50;;;;;;5065359;28;20605;-83
2022/08/13 11:46:30;;;;;;;5.53;2.50;;;31.20;42.10;;;;;;5065120;28;20043;-83
2022/08/13 11:48:56;;;;;;;3.45;2.60;;;31.30;41.70;;;;;;5064800;28;20036;-83
2022/08/13 11:51:21;;;;;;;5.03;2.47;;;31.30;41.80;;;;;;5064976;28;20027;-83
2022/08/13 11:53:47;;;;;;;3.65;2.55;;;31.50;41.40;;;;;;5064471;28;20031;-83
2022/08/13 11:56:13;;;;;;;3.17;2.53;;;31.60;41.20;;;;;;5066413;28;20540;-83
2022/08/13 11:58:39;;;;;;;5.05;2.63;;;31.80;41.30;;;;;;5064520;28;20027;-83
2022/08/13 12:01:08;;;;;;;5.78;2.40;;;31.80;40.90;;;;;;5064667;28;20028;-83
2022/08/13 12:03:35;;;;;;;4.82;2.33;;;31.80;40.20;;;;;;5065060;28;20033;-83
2022/08/13 12:06:02;;;;;;;3.45;2.80;;;31.90;40.20;;;;;;5064617;28;20032;-83
2022/08/13 12:08:28;;;;;;;2.95;2.08;;;31.90;40.00;;;;;;5064468;28;20028;-83
2022/08/13 12:10:53;;;;;;;5.18;2.83;;;32.00;40.00;;;;;;5064485;28;20032;-83
2022/08/13 12:13:19;;;;;;;4.07;2.50;;;32.00;39.90;;;;;;5063849;28;20767;-83
2022/08/13 12:15:45;;;;;;;4.90;2.67;;;31.80;39.90;;;;;;5064062;28;20032;-83
2022/08/13 12:18:12;;;;;;;3.22;2.60;;;31.70;39.70;;;;;;5065752;28;20456;-82
2022/08/13 12:20:38;;;;;;;4.40;2.60;;;31.60;39.50;;;;;;5064732;28;20032;-83
2022/08/13 12:23:03;;;;;;;3.30;2.67;;;31.60;39.40;;;;;;5065599;28;20047;-82
2022/08/13 12:25:31;;;;;;;5.75;2.80;;;31.50;40.00;;;;;;5065015;28;20033;-82
2022/08/13 12:28:15;;;;;;;2.47;2.28;;;31.50;40.50;;;;;;5064560;28;20483;-82
2022/08/13 12:30:42;;;;;;;3.42;2.38;;;31.40;40.50;;;;;;5064666;28;20758;-82
2022/08/13 12:33:08;;;;;;;8.35;2.75;;;31.30;40.40;;;;;;5064612;28;20021;-82
2022/08/13 12:35:35;;;;;;;3.13;2.17;;;31.30;40.10;;;;;;5064507;28;20029;-82
2022/08/13 12:38:06;;;;;;;4.80;2.72;;;31.30;40.30;;;;;;5064159;28;20400;-83
2022/08/13 12:40:32;;;;;;;4.20;2.35;;;31.30;40.80;;;;;;5064777;28;20242;-82
2022/08/13 12:42:57;;;;;;;5.30;2.85;;;31.40;40.90;;;;;;5066073;28;20497;-81
2022/08/13 12:45:23;;;;;;;4.28;2.63;;;31.50;41.00;;;;;;5069165;28;20090;-82
2022/08/13 12:47:49;;;;;;;3.60;2.83;;;31.60;41.00;;;;;;5069243;28;20489;-83
2022/08/13 12:50:14;;;;;;;2.47;2.28;;;31.60;40.50;;;;;;5067894;28;20540;-82
2022/08/13 12:52:40;;;;;;;6.97;2.47;;;31.60;40.80;;;;;;5067800;28;20090;-83
2022/08/13 12:55:06;;;;;;;4.47;2.80;;;31.70;40.60;;;;;;5067864;28;20039;-82
2022/08/13 12:57:32;;;;;;;3.30;2.47;;;31.70;40.60;;;;;;5068630;28;20059;-82
2022/08/13 12:59:57;;;;;;;3.47;2.22;;;31.80;40.70;;;;;;5067757;28;20078;-83
2022/08/13 13:02:23;;;;;;;7.03;1.98;;;31.90;40.50;;;;;;5068053;28;20115;-82
2022/08/13 13:04:49;;;;;;;5.65;2.20;;;32.00;38.90;;;;;;5067016;28;20489;-82
2022/08/13 13:07:15;;;;;;;3.38;2.35;;;31.90;38.20;;;;;;5067766;28;20020;-83
2022/08/13 13:09:41;;;;;;;5.35;2.25;;;31.90;37.80;;;;;;5066934;28;20386;-83
2022/08/13 13:12:07;;;;;;;4.82;2.60;;;31.90;38.90;;;;;;5066841;28;20158;-82